createdAt,value
2019-01-20T00:01:58.977Z,484.80
2019-01-20T00:04:30.515Z,469.80
2019-01-20T00:07:01.877Z,446.60
2019-01-20T00:09:33.129Z,457.60
2019-01-20T00:12:04.646Z,454.60
2019-01-20T00:14:35.832Z,449.60
2019-01-20T00:17:07.399Z,452.40
2019-01-20T00:19:38.731Z,450.20
2019-01-20T00:22:10.188Z,437.00
2019-01-20T00:24:42.093Z,475.80
2019-01-20T00:27:13.618Z,428.80
2019-01-20T00:29:45.026Z,450.40
2019-01-20T00:32:16.438Z,433.00
2019-01-20T00:34:48.013Z,454.00
2019-01-20T00:37:19.582Z,453.50
2019-01-20T00:39:50.736Z,436.00
2019-01-20T00:42:22.042Z,422.80
2019-01-20T00:44:53.405Z,447.00
2019-01-20T00:47:25.269Z,465.80
2019-01-20T00:49:57.439Z,451.00
2019-01-20T00:52:28.816Z,438.75
2019-01-20T00:55:00.252Z,448.00
2019-01-20T00:57:31.660Z,442.40
2019-01-20T01:00:04.536Z,452.60
2019-01-20T01:02:35.926Z,444.00
2019-01-20T01:05:07.872Z,407.00
2019-01-20T01:07:40.242Z,420.75
2019-01-20T01:10:12.130Z,437.50
2019-01-20T01:12:43.310Z,451.80
2019-01-20T01:15:14.609Z,458.80
2019-01-20T01:17:45.906Z,432.00
2019-01-20T01:20:18.438Z,419.00
2019-01-20T01:22:49.969Z,428.50
2019-01-20T01:25:22.050Z,449.80
2019-01-20T01:27:53.665Z,443.60
2019-01-20T01:30:26.660Z,438.20
2019-01-20T01:33:01.190Z,457.80
2019-01-20T01:35:32.398Z,451.20
2019-01-20T01:38:03.747Z,465.00
2019-01-20T01:40:34.973Z,450.00
2019-01-20T01:43:06.520Z,461.00
2019-01-20T01:45:38.144Z,492.20
2019-01-20T01:48:09.746Z,500.40
2019-01-20T01:50:40.925Z,494.75
2019-01-20T01:53:12.532Z,580.20
2019-01-20T01:55:43.608Z,567.20
2019-01-20T01:58:15.196Z,552.60
2019-01-20T02:00:46.305Z,571.40
2019-01-20T02:03:17.931Z,595.40
2019-01-20T02:05:49.021Z,619.60
2019-01-20T02:08:20.601Z,593.00
2019-01-20T02:10:51.721Z,560.60
2019-01-20T02:13:23.470Z,551.40
2019-01-20T02:15:55.336Z,538.80
2019-01-20T02:18:26.850Z,541.80
2019-01-20T02:20:57.951Z,507.60
2019-01-20T02:23:31.109Z,553.40
2019-01-20T02:26:02.498Z,540.40
2019-01-20T02:28:33.899Z,543.40
2019-01-20T02:31:05.060Z,573.67
2019-01-20T02:33:36.898Z,560.00
2019-01-20T02:36:08.617Z,562.17
2019-01-20T02:38:41.682Z,566.67
2019-01-20T02:41:12.809Z,490.00
2019-01-20T02:43:44.647Z,515.40
2019-01-20T02:46:17.346Z,521.20
2019-01-20T02:48:50.287Z,504.40
2019-01-20T02:51:21.475Z,502.40
2019-01-20T02:53:52.635Z,495.80
2019-01-20T02:56:24.057Z,541.60
2019-01-20T02:58:55.793Z,558.17
2019-01-20T03:01:27.927Z,528.00
2019-01-20T03:04:00.930Z,546.20
2019-01-20T03:06:32.230Z,547.60
2019-01-20T03:09:07.142Z,535.60
2019-01-20T03:11:38.289Z,536.40
2019-01-20T03:14:09.725Z,552.60
2019-01-20T03:16:40.892Z,540.20
2019-01-20T03:19:12.713Z,555.40
2019-01-20T03:21:44.383Z,552.60
2019-01-20T03:24:16.141Z,536.00
2019-01-20T03:26:47.447Z,572.60
2019-01-20T03:29:18.998Z,593.40
2019-01-20T03:31:50.487Z,575.20
2019-01-20T03:34:21.931Z,582.40
2019-01-20T03:36:53.491Z,570.60
2019-01-20T03:39:25.499Z,567.40
2019-01-20T03:41:56.867Z,598.20
2019-01-20T03:44:28.522Z,597.20
2019-01-20T03:47:03.472Z,600.40
2019-01-20T03:49:35.352Z,588.60
2019-01-20T03:52:06.898Z,597.00
2019-01-20T03:54:38.285Z,563.20
2019-01-20T03:57:10.124Z,579.40
2019-01-20T03:59:41.372Z,580.20
2019-01-20T04:02:13.092Z,601.20
2019-01-20T04:04:44.665Z,554.20
2019-01-20T04:07:16.129Z,557.40
2019-01-20T04:09:47.175Z,591.40
2019-01-20T04:12:20.629Z,553.40
2019-01-20T04:14:53.167Z,540.40
2019-01-20T04:17:24.982Z,519.00
2019-01-20T04:19:56.440Z,577.00
2019-01-20T04:22:27.765Z,575.60
2019-01-20T04:24:59.429Z,603.20
2019-01-20T04:27:34.021Z,613.60
2019-01-20T04:30:05.607Z,638.40
2019-01-20T04:32:39.240Z,633.83
2019-01-20T04:35:11.035Z,638.00
2019-01-20T04:37:42.928Z,636.50
2019-01-20T04:40:16.955Z,615.00
2019-01-20T04:42:48.729Z,626.60
2019-01-20T04:45:20.301Z,626.00
2019-01-20T04:47:51.537Z,697.33
2019-01-20T04:50:26.391Z,666.00
2019-01-20T04:52:58.288Z,665.17
2019-01-20T04:55:30.137Z,640.33
2019-01-20T04:58:01.938Z,614.83
2019-01-20T05:00:34.098Z,662.50
2019-01-20T05:03:05.275Z,642.50
2019-01-20T05:05:36.503Z,571.20
2019-01-20T05:08:07.726Z,574.20
2019-01-20T05:10:39.196Z,571.00
2019-01-20T05:13:10.631Z,409.75
2019-01-20T05:15:41.854Z,433.20
2019-01-20T05:18:13.020Z,413.25
2019-01-20T05:20:44.747Z,435.20
2019-01-20T05:23:16.431Z,394.40
2019-01-20T05:25:48.543Z,367.75
2019-01-20T05:28:19.864Z,391.00
2019-01-20T05:30:51.027Z,361.75
2019-01-20T05:33:22.363Z,339.00
2019-01-20T05:35:53.560Z,334.50
2019-01-20T05:38:25.624Z,369.50
2019-01-20T05:40:56.856Z,354.25
2019-01-20T05:43:28.496Z,345.25
2019-01-20T05:45:59.750Z,338.75
2019-01-20T05:48:32.880Z,312.75
2019-01-20T05:51:04.517Z,310.25
2019-01-20T05:53:36.093Z,325.75
2019-01-20T05:56:07.596Z,322.25
2019-01-20T05:58:39.379Z,288.00
2019-01-20T06:01:11.434Z,275.75
2019-01-20T06:03:43.045Z,267.00
2019-01-20T06:06:14.235Z,215.00
2019-01-20T06:08:45.825Z,198.25
2019-01-20T06:11:17.154Z,181.75
2019-01-20T06:13:48.635Z,158.20
2019-01-20T06:16:20.008Z,107.60
2019-01-20T06:18:52.490Z,119.00
2019-01-20T06:21:23.645Z,112.00
2019-01-20T06:23:55.045Z,103.80
2019-01-20T06:26:26.337Z,83.80
2019-01-20T06:29:00.846Z,105.00
2019-01-20T06:31:32.297Z,95.00
2019-01-20T06:34:04.112Z,103.60
2019-01-20T06:36:35.444Z,114.60
2019-01-20T06:39:09.509Z,109.80
2019-01-20T06:41:40.880Z,109.00
2019-01-20T06:44:12.344Z,92.60
2019-01-20T06:46:43.520Z,101.80
2019-01-20T06:49:15.256Z,98.20
2019-01-20T06:51:46.762Z,96.40
2019-01-20T06:54:19.667Z,94.00
2019-01-20T06:56:51.957Z,91.60
2019-01-20T06:59:23.920Z,82.60
2019-01-20T07:01:55.507Z,86.20
2019-01-20T07:04:26.988Z,83.40
2019-01-20T07:06:58.916Z,68.60
2019-01-20T07:09:30.379Z,77.20
2019-01-20T07:12:01.954Z,80.80
2019-01-20T07:14:33.234Z,81.40
2019-01-20T07:17:05.006Z,72.80
2019-01-20T07:19:36.309Z,76.40
2019-01-20T07:22:07.845Z,77.40
2019-01-20T07:24:39.184Z,71.40
2019-01-20T07:27:10.708Z,66.00
2019-01-20T07:29:41.871Z,70.40
2019-01-20T07:32:13.269Z,65.00
2019-01-20T07:34:44.605Z,70.40
2019-01-20T07:37:16.047Z,71.40
2019-01-20T07:39:47.474Z,74.60
2019-01-20T07:42:18.747Z,74.00
2019-01-20T07:44:49.902Z,72.40
2019-01-20T07:47:21.311Z,66.20
2019-01-20T07:49:52.627Z,67.80
2019-01-20T07:52:23.843Z,68.60
2019-01-20T07:54:55.370Z,76.20
2019-01-20T07:57:26.534Z,66.60
2019-01-20T07:59:58.016Z,71.60
2019-01-20T08:02:29.646Z,67.60
2019-01-20T08:05:00.957Z,71.60
2019-01-20T08:07:32.411Z,75.20
2019-01-20T08:10:04.087Z,81.40
2019-01-20T08:12:35.503Z,81.60
2019-01-20T08:15:09.867Z,77.00
2019-01-20T08:17:41.277Z,71.60
2019-01-20T08:20:16.005Z,70.40
2019-01-20T08:22:47.971Z,71.60
2019-01-20T08:25:19.800Z,70.80
2019-01-20T08:27:51.271Z,66.60
2019-01-20T08:30:24.622Z,65.00
2019-01-20T08:32:56.274Z,62.60
2019-01-20T08:35:28.018Z,63.00
2019-01-20T08:37:59.537Z,63.40
2019-01-20T08:40:32.499Z,62.40
2019-01-20T08:43:04.383Z,65.20
2019-01-20T08:46:22.211Z,66.80
2019-01-20T08:48:53.468Z,66.60
2019-01-20T08:51:24.804Z,67.60
2019-01-20T08:53:56.179Z,69.20
2019-01-20T08:56:27.482Z,69.20
2019-01-20T08:58:58.918Z,73.20
2019-01-20T09:01:30.679Z,74.80
2019-01-20T09:04:02.179Z,69.60
2019-01-20T09:06:33.414Z,75.20
2019-01-20T09:09:06.279Z,77.80
2019-01-20T09:11:37.661Z,75.80
2019-01-20T09:14:09.450Z,66.80
2019-01-20T09:16:40.789Z,71.20
2019-01-20T09:19:12.496Z,67.00
2019-01-20T09:21:43.998Z,67.20
2019-01-20T09:24:15.493Z,66.40
2019-01-20T09:26:47.544Z,62.40
2019-01-20T09:29:18.777Z,68.60
2019-01-20T09:31:50.405Z,62.80
2019-01-20T09:34:21.909Z,64.40
2019-01-20T09:36:53.379Z,65.40
2019-01-20T09:39:24.948Z,64.00
2019-01-20T09:41:56.326Z,69.20
2019-01-20T09:44:28.078Z,64.20
2019-01-20T09:46:59.328Z,60.60
2019-01-20T09:49:30.868Z,62.00
2019-01-20T09:52:02.393Z,59.80
2019-01-20T09:54:33.742Z,60.20
2019-01-20T09:57:05.294Z,58.20
2019-01-20T09:59:36.683Z,65.20
2019-01-20T10:02:08.335Z,62.60
2019-01-20T10:04:39.685Z,65.20
2019-01-20T10:07:11.042Z,71.00
2019-01-20T10:09:42.649Z,75.60
2019-01-20T10:12:14.177Z,77.60
2019-01-20T10:14:46.012Z,64.80
2019-01-20T10:17:17.159Z,71.20
2019-01-20T10:19:48.821Z,70.00
2019-01-20T10:22:20.479Z,73.40
2019-01-20T10:24:52.582Z,70.20
2019-01-20T10:27:23.964Z,79.40
2019-01-20T10:29:55.445Z,77.60
2019-01-20T10:32:26.729Z,71.60
2019-01-20T10:34:58.756Z,69.20
2019-01-20T10:37:34.057Z,72.60
2019-01-20T10:40:05.647Z,74.40
2019-01-20T10:42:37.198Z,63.40
2019-01-20T10:45:10.458Z,69.60
2019-01-20T10:47:41.562Z,69.40
2019-01-20T10:50:13.752Z,64.40
2019-01-20T10:52:44.920Z,69.20
2019-01-20T10:55:16.688Z,67.40
2019-01-20T10:57:48.004Z,71.40
2019-01-20T11:00:30.304Z,66.60
2019-01-20T11:03:01.513Z,73.20
2019-01-20T11:05:33.263Z,76.80
2019-01-20T11:08:05.745Z,71.20
2019-01-20T11:10:37.150Z,74.60
2019-01-20T11:13:08.675Z,75.80
2019-01-20T11:15:40.605Z,69.80
2019-01-20T11:18:12.089Z,68.80
2019-01-20T11:20:44.135Z,76.00
2019-01-20T11:23:15.635Z,71.00
2019-01-20T11:25:47.025Z,71.60
2019-01-20T11:28:18.247Z,70.20
2019-01-20T11:30:50.009Z,76.60
2019-01-20T11:33:21.680Z,71.40
2019-01-20T11:35:53.071Z,69.40
2019-01-20T11:38:24.433Z,63.20
2019-01-20T11:40:57.133Z,75.40
2019-01-20T11:43:28.441Z,78.40
2019-01-20T11:46:00.048Z,84.40
2019-01-20T11:48:31.105Z,77.40
2019-01-20T11:51:02.374Z,83.20
2019-01-20T11:53:33.608Z,89.60
2019-01-20T11:56:05.263Z,85.80
2019-01-20T11:58:36.423Z,83.20
2019-01-20T12:01:07.667Z,112.20
2019-01-20T12:03:39.364Z,96.80
2019-01-20T12:06:10.732Z,82.20
2019-01-20T12:08:43.124Z,82.40
2019-01-20T12:11:14.443Z,83.60
2019-01-20T12:13:45.955Z,74.40
2019-01-20T12:16:17.205Z,73.40
2019-01-20T12:18:48.762Z,81.00
2019-01-20T12:21:20.326Z,73.60
2019-01-20T12:23:51.980Z,78.40
2019-01-20T12:26:23.613Z,65.60
2019-01-20T12:28:54.767Z,70.80
2019-01-20T12:31:26.564Z,78.40
2019-01-20T12:33:57.669Z,76.40
2019-01-20T12:36:29.373Z,73.80
2019-01-20T12:39:00.781Z,77.20
2019-01-20T12:41:32.346Z,71.60
2019-01-20T12:44:03.725Z,80.60
2019-01-20T12:46:34.975Z,80.80
2019-01-20T12:49:06.385Z,75.20
2019-01-20T12:51:37.587Z,75.00
2019-01-20T12:54:08.888Z,79.60
2019-01-20T12:56:40.783Z,73.00
2019-01-20T12:59:12.722Z,78.00
2019-01-20T13:01:44.102Z,75.00
2019-01-20T13:04:15.498Z,84.60
2019-01-20T13:06:46.762Z,78.80
2019-01-20T13:09:17.952Z,81.40
2019-01-20T13:11:49.309Z,84.60
2019-01-20T13:14:20.718Z,88.80
2019-01-20T13:16:52.355Z,81.40
2019-01-20T13:19:23.972Z,85.80
2019-01-20T13:21:55.330Z,84.40
2019-01-20T13:24:27.245Z,88.00
2019-01-20T13:26:58.499Z,88.20
2019-01-20T13:29:30.592Z,93.00
2019-01-20T13:32:02.081Z,93.20
2019-01-20T13:34:34.515Z,98.80
2019-01-20T13:37:06.277Z,92.80
2019-01-20T13:39:37.688Z,101.40
2019-01-20T13:42:10.297Z,111.80
2019-01-20T13:44:46.196Z,103.80
2019-01-20T13:47:14.961Z,95.00
2019-01-20T13:49:46.232Z,98.40
2019-01-20T13:52:17.408Z,112.80
2019-01-20T13:54:49.064Z,96.20
2019-01-20T13:57:20.640Z,109.80
2019-01-20T13:59:54.782Z,128.60
2019-01-20T14:02:26.239Z,132.20
2019-01-20T14:04:58.220Z,138.40
2019-01-20T14:07:31.384Z,140.20
2019-01-20T14:10:02.388Z,144.40
2019-01-20T14:12:33.552Z,143.80
2019-01-20T14:15:05.198Z,151.20
2019-01-20T14:17:38.476Z,202.75
2019-01-20T14:20:21.413Z,196.50
2019-01-20T14:22:52.655Z,222.00
2019-01-20T14:25:25.030Z,218.00
2019-01-20T14:27:56.449Z,224.75
2019-01-20T14:30:29.605Z,225.50
2019-01-20T14:33:01.935Z,216.75
2019-01-20T14:35:33.440Z,222.00
2019-01-20T14:38:05.024Z,223.00
2019-01-20T14:40:36.733Z,227.25
2019-01-20T14:43:08.526Z,346.50
2019-01-20T14:45:40.152Z,363.80
2019-01-20T14:48:11.603Z,425.20
2019-01-20T14:50:42.965Z,440.60
2019-01-20T14:53:14.029Z,377.75
2019-01-20T14:55:45.620Z,316.00
2019-01-20T14:58:17.131Z,308.75
2019-01-20T15:00:49.131Z,318.25
2019-01-20T15:03:20.566Z,333.75
2019-01-20T15:05:51.890Z,319.25
2019-01-20T15:08:23.704Z,317.25
2019-01-20T15:10:55.329Z,321.75
2019-01-20T15:13:26.812Z,307.25
2019-01-20T15:16:00.583Z,328.00
2019-01-20T15:18:32.128Z,328.00
2019-01-20T15:21:04.190Z,321.50
2019-01-20T15:23:35.395Z,327.75
2019-01-20T15:26:07.652Z,334.00
2019-01-20T15:28:38.986Z,353.00
2019-01-20T15:31:10.951Z,354.20
2019-01-20T15:33:42.571Z,390.00
2019-01-20T15:36:14.090Z,387.25
2019-01-20T15:38:45.157Z,386.25
2019-01-20T15:41:17.086Z,375.20
2019-01-20T15:43:48.391Z,365.25
2019-01-20T15:46:20.153Z,386.75
2019-01-20T15:48:51.930Z,414.25
2019-01-20T15:51:23.185Z,395.75
2019-01-20T15:53:54.584Z,383.25
2019-01-20T15:56:26.757Z,400.75
2019-01-20T15:58:58.125Z,407.25
2019-01-20T16:01:29.982Z,418.80
2019-01-20T16:04:01.671Z,411.40
2019-01-20T16:06:33.284Z,422.00
2019-01-20T16:09:06.446Z,413.60
2019-01-20T16:11:38.275Z,428.00
2019-01-20T16:14:09.560Z,454.60
2019-01-20T16:16:40.886Z,381.40
2019-01-20T16:19:12.660Z,433.80
2019-01-20T16:21:44.298Z,435.80
2019-01-20T16:24:16.687Z,441.20
2019-01-20T16:26:48.883Z,438.40
2019-01-20T16:29:20.655Z,472.00
2019-01-20T16:31:52.143Z,467.00
2019-01-20T16:34:23.807Z,470.83
2019-01-20T16:36:55.160Z,483.00
2019-01-20T16:39:26.477Z,499.00
2019-01-20T16:41:58.084Z,541.00
2019-01-20T16:44:29.601Z,507.40
2019-01-20T16:47:01.369Z,512.40
2019-01-20T16:49:34.730Z,510.40
2019-01-20T16:52:06.331Z,481.00
2019-01-20T16:54:38.017Z,499.00
2019-01-20T16:57:09.424Z,500.40
2019-01-20T16:59:41.398Z,487.20
2019-01-20T17:02:12.848Z,537.60
2019-01-20T17:04:44.287Z,534.60
2019-01-20T17:07:17.174Z,546.60
2019-01-20T17:09:48.766Z,568.00
2019-01-20T17:12:21.325Z,528.60
2019-01-20T17:14:53.252Z,544.80
2019-01-20T17:17:24.591Z,553.60
2019-01-20T17:19:55.771Z,556.40
2019-01-20T17:22:26.861Z,548.00
2019-01-20T17:24:57.954Z,542.20
2019-01-20T17:27:29.470Z,552.80
2019-01-20T17:30:00.965Z,538.00
2019-01-20T17:32:35.130Z,542.60
2019-01-20T17:35:09.392Z,556.80
2019-01-20T17:37:40.788Z,536.40
2019-01-20T17:40:15.387Z,564.80
2019-01-20T17:42:47.965Z,547.00
2019-01-20T17:45:21.983Z,577.20
2019-01-20T17:47:53.317Z,556.40
2019-01-20T17:50:30.012Z,565.00
2019-01-20T17:53:02.868Z,567.80
2019-01-20T17:55:34.057Z,554.00
2019-01-20T17:58:06.681Z,587.20
2019-01-20T18:00:45.060Z,556.20
2019-01-20T18:03:16.966Z,560.60
2019-01-20T18:05:48.742Z,546.80
2019-01-20T18:08:20.194Z,543.80
2019-01-20T18:10:51.876Z,528.40
2019-01-20T18:13:23.315Z,556.20
2019-01-20T18:15:55.015Z,527.33
2019-01-20T18:18:26.555Z,540.20
2019-01-20T18:20:58.302Z,554.40
2019-01-20T18:23:29.862Z,534.20
2019-01-20T18:26:01.439Z,517.67
2019-01-20T18:28:32.937Z,455.60
2019-01-20T18:31:04.844Z,418.20
2019-01-20T18:33:35.857Z,394.00
2019-01-20T18:36:07.007Z,402.20
2019-01-20T18:38:38.678Z,356.00
2019-01-20T18:41:10.149Z,368.25
2019-01-20T18:43:41.748Z,365.25
2019-01-20T18:46:13.130Z,337.75
2019-01-20T18:48:44.267Z,339.75
2019-01-20T18:51:15.445Z,349.75
2019-01-20T18:53:47.016Z,367.75
2019-01-20T18:56:18.439Z,391.40
2019-01-20T18:58:50.286Z,364.50
2019-01-20T19:01:22.548Z,373.40
2019-01-20T19:03:54.225Z,380.25
2019-01-20T19:06:25.883Z,350.00
2019-01-20T19:08:57.782Z,359.50
2019-01-20T19:11:29.246Z,366.50
2019-01-20T19:14:00.579Z,355.50
2019-01-20T19:16:32.079Z,330.25
2019-01-20T19:19:03.399Z,338.25
2019-01-20T19:21:35.128Z,337.75
2019-01-20T19:24:06.519Z,324.25
2019-01-20T19:26:38.267Z,306.50
2019-01-20T19:29:09.795Z,310.75
2019-01-20T19:31:41.475Z,308.00
2019-01-20T19:34:12.499Z,307.00
2019-01-20T19:36:44.135Z,327.50
2019-01-20T19:39:16.483Z,311.25
2019-01-20T19:41:47.960Z,293.00
2019-01-20T19:44:19.396Z,297.00
2019-01-20T19:46:52.659Z,288.75
2019-01-20T19:49:23.141Z,298.25
2019-01-20T19:51:54.808Z,279.00
2019-01-20T19:54:26.443Z,286.00
2019-01-20T19:56:58.042Z,289.75
2019-01-20T19:59:29.671Z,278.75
2019-01-20T20:02:02.252Z,251.75
2019-01-20T20:04:33.779Z,247.00
2019-01-20T20:07:05.460Z,258.25
2019-01-20T20:09:36.577Z,234.75
2019-01-20T20:12:08.330Z,236.75
2019-01-20T20:14:39.627Z,260.50
2019-01-20T20:17:10.942Z,294.25
2019-01-20T20:19:42.158Z,287.50
2019-01-20T20:22:13.878Z,308.50
2019-01-20T20:24:45.943Z,319.00
2019-01-20T20:27:17.241Z,297.50
2019-01-20T20:29:48.671Z,302.50
2019-01-20T20:32:20.071Z,294.25
2019-01-20T20:34:53.737Z,278.75
2019-01-20T20:37:24.913Z,283.25
2019-01-20T20:39:56.829Z,277.75
2019-01-20T20:42:28.375Z,284.50
2019-01-20T20:45:00.900Z,296.75
2019-01-20T20:47:32.045Z,295.00
2019-01-20T20:50:03.578Z,296.25
2019-01-20T20:53:08.078Z,301.00
2019-01-20T20:55:39.547Z,290.75
2019-01-20T20:58:11.338Z,285.50
2019-01-20T21:00:48.470Z,287.75
2019-01-20T21:03:22.552Z,274.75
2019-01-20T21:05:54.085Z,281.75
2019-01-20T21:08:25.572Z,281.00
2019-01-20T21:10:56.894Z,274.75
2019-01-20T21:13:28.597Z,269.50
2019-01-20T21:16:00.257Z,270.25
2019-01-20T21:18:31.860Z,272.75
2019-01-20T21:21:03.286Z,264.50
2019-01-20T21:23:34.738Z,256.75
2019-01-20T21:26:06.552Z,266.50
2019-01-20T21:28:37.970Z,263.75
2019-01-20T21:31:09.470Z,272.50
2019-01-20T21:33:40.970Z,255.75
2019-01-20T21:36:12.652Z,254.50
2019-01-20T21:38:44.336Z,260.50
2019-01-20T21:41:15.948Z,249.75
2019-01-20T21:43:47.340Z,247.50
2019-01-20T21:46:18.880Z,260.75
2019-01-20T21:48:50.154Z,246.50
2019-01-20T21:51:22.282Z,253.50
2019-01-20T21:53:53.769Z,253.25
2019-01-20T21:56:25.208Z,262.00
2019-01-20T21:58:56.768Z,260.25
2019-01-20T22:01:28.624Z,248.50
2019-01-20T22:04:00.873Z,235.00
2019-01-20T22:06:32.443Z,236.00
2019-01-20T22:09:03.816Z,241.75
2019-01-20T22:11:36.774Z,234.75
2019-01-20T22:14:08.243Z,241.50
2019-01-20T22:16:39.956Z,228.75
2019-01-20T22:19:11.097Z,219.50
2019-01-20T22:21:42.974Z,224.75
2019-01-20T22:24:14.343Z,228.75
2019-01-20T22:26:46.062Z,216.00
2019-01-20T22:29:17.505Z,228.75
2019-01-20T22:31:48.953Z,229.50
2019-01-20T22:34:20.643Z,202.75
2019-01-20T22:36:51.960Z,216.50
2019-01-20T22:39:23.289Z,206.00
2019-01-20T22:41:54.652Z,206.50
2019-01-20T22:44:26.060Z,202.75
2019-01-20T22:47:00.136Z,214.50
2019-01-20T22:49:33.577Z,191.50
2019-01-20T22:52:06.042Z,191.75
2019-01-20T22:54:37.238Z,207.75
2019-01-20T22:57:08.890Z,192.75
2019-01-20T22:59:40.553Z,195.75
2019-01-20T23:02:12.196Z,199.00
2019-01-20T23:04:43.552Z,185.25
2019-01-20T23:07:15.054Z,181.50
2019-01-20T23:09:46.562Z,186.25
2019-01-20T23:12:18.075Z,185.25
2019-01-20T23:14:49.733Z,184.50
2019-01-20T23:17:21.070Z,169.25
2019-01-20T23:19:52.417Z,187.50
2019-01-20T23:22:24.424Z,183.50
2019-01-20T23:24:55.755Z,172.40
2019-01-20T23:27:27.473Z,175.50
2019-01-20T23:29:58.600Z,177.20
2019-01-20T23:32:30.244Z,173.20
2019-01-20T23:35:01.884Z,177.20
2019-01-20T23:37:33.656Z,169.20
2019-01-20T23:40:06.270Z,171.00
2019-01-20T23:42:38.014Z,177.60
2019-01-20T23:45:11.192Z,173.00
2019-01-20T23:47:42.801Z,180.60
2019-01-20T23:50:14.490Z,164.20
2019-01-20T23:52:46.290Z,174.40
2019-01-20T23:55:17.639Z,171.40
2019-01-20T23:57:49.327Z,169.20
